Ayvalik, Turkey

12:54 PM EEST on August 22, 2014 (GMT +0300)
Odysseas Elytis | Change Station
CLOSE
Current Station
Airport
Location: Mytilini,
Elevation: 16 ft
Nearby Weather Stations

Elev 16 ft 39.05 °N, 26.60 °E | Updated 34 minutes ago

Clear
Clear
84 °F
Feels Like 91 °F
N
6
Wind Variable Wind from North

Today
High -- | Low -- °F
--% Chance of Precip.
Yesterday
High -- | Low -- °F
Precip. -- in
6:32 AM 7:59 PM
Waning Crescent, 9% visible
Pressure 29.95 in
Visibility -9999.0 miles
Clouds
Heat Index 91 °F
Dew Point 73 °F
Humidity 70%
Rainfall 0.00 in
Snow Depth Not available.
UV Not available.
Pollen Not available.
Air Quality Not available.
Flu Activity Not available.
METAR LGMT 220920Z 35005KT CAVOK 29/23 Q1014

More Conditions Fewer Conditions

Pressure 29.95 in
Visibility -9999.0 miles
Clouds
Heat Index 91 °F
Dew Point 73 °F
Humidity 70%
Rainfall 0.00 in
Snow Depth Not available.
UV Not available.
Pollen Not available.
Air Quality Not available.
Flu Activity Not available.
METAR LGMT 220920Z 35005KT CAVOK 29/23 Q1014

More Conditions Fewer Conditions

10-Day Weather Forecast

Almanac

Astronomy

Aug. 22, 2014 Rise Set
Actual Time 6:32 AM EEST 7:59 PM EEST
Civil Twilight 6:04 AM EEST 8:27 PM EEST
Nautical Twilight 5:30 AM EEST 9:01 PM EEST
Astronomical Twilight 4:54 AM EEST 9:36 PM EEST
Moon 3:38 AM EEST 5:55 PM EEST
Length of Visible Light 14h 23m
Length of Day
13h 27m
Tomorrow will be 2m 22s shorter.
Waning Crescent, 9% of the Moon is Illuminated
Today
Waning Crescent
Aug 25
New
Sep 2
First Quarter
Sep 8
Full
Sep 15
Last Quarter

Yesterday's Extremes

Country Highs Country Lows

Community

WunderPhotos

Upload Photos

1,746,146 photos uploaded!

Nearby

Snow Depth

Not available.

Earthquake Activity

City Distance Mag. Time & Date
No recent earthquake activity has been reported nearby.
Minimum magnitude displayed is 2.5.

Coastal Water Temperatures

Place Temperature
No Stations Reporting

Nearby Weather Stations